sensor_id;sensor_type;location;lat;lon;timestamp;temperature;humidity
24164;DHT22;12319;49.204;8.116;2023-05-24T00:00:18;14.70;71.30
24164;DHT22;12319;49.204;8.116;2023-05-24T00:02:43;14.60;71.10
24164;DHT22;12319;49.204;8.116;2023-05-24T00:05:09;14.70;71.10
24164;DHT22;12319;49.204;8.116;2023-05-24T00:07:36;14.60;71.00
24164;DHT22;12319;49.204;8.116;2023-05-24T00:10:04;14.60;71.00
24164;DHT22;12319;49.204;8.116;2023-05-24T00:12:29;14.60;70.90
24164;DHT22;12319;49.204;8.116;2023-05-24T00:14:55;14.50;71.00
24164;DHT22;12319;49.204;8.116;2023-05-24T00:17:20;14.50;71.00
24164;DHT22;12319;49.204;8.116;2023-05-24T00:19:46;14.50;71.00
24164;DHT22;12319;49.204;8.116;2023-05-24T00:22:12;14.40;71.00
24164;DHT22;12319;49.204;8.116;2023-05-24T00:24:38;14.40;71.10
24164;DHT22;12319;49.204;8.116;2023-05-24T00:27:05;14.40;71.20
24164;DHT22;12319;49.204;8.116;2023-05-24T00:29:30;14.30;71.00
24164;DHT22;12319;49.204;8.116;2023-05-24T00:31:56;14.30;71.00
24164;DHT22;12319;49.204;8.116;2023-05-24T00:34:21;14.20;71.10
24164;DHT22;12319;49.204;8.116;2023-05-24T00:36:47;14.10;71.10
24164;DHT22;12319;49.204;8.116;2023-05-24T00:39:12;14.10;71.10
24164;DHT22;12319;49.204;8.116;2023-05-24T00:41:38;14.10;71.30
24164;DHT22;12319;49.204;8.116;2023-05-24T00:44:03;14.10;71.20
24164;DHT22;12319;49.204;8.116;2023-05-24T00:46:33;14.10;71.20
24164;DHT22;12319;49.204;8.116;2023-05-24T00:49:00;14.00;71.40
24164;DHT22;12319;49.204;8.116;2023-05-24T00:51:26;13.90;71.30
24164;DHT22;12319;49.204;8.116;2023-05-24T00:53:56;13.90;71.40
24164;DHT22;12319;49.204;8.116;2023-05-24T00:56:22;13.90;71.50
24164;DHT22;12319;49.204;8.116;2023-05-24T00:58:47;13.80;71.40
24164;DHT22;12319;49.204;8.116;2023-05-24T01:01:15;13.80;71.40
24164;DHT22;12319;49.204;8.116;2023-05-24T01:03:40;13.80;71.40
24164;DHT22;12319;49.204;8.116;2023-05-24T01:06:07;13.80;71.40
24164;DHT22;12319;49.204;8.116;2023-05-24T01:08:45;13.80;71.50
24164;DHT22;12319;49.204;8.116;2023-05-24T01:14:02;13.70;71.40
24164;DHT22;12319;49.204;8.116;2023-05-24T01:16:57;13.70;71.50
24164;DHT22;12319;49.204;8.116;2023-05-24T01:26:39;13.60;71.40
24164;DHT22;12319;49.204;8.116;2023-05-24T01:28:32;13.50;71.50
24164;DHT22;12319;49.204;8.116;2023-05-24T01:30:59;13.50;71.20
24164;DHT22;12319;49.204;8.116;2023-05-24T01:33:25;13.50;71.60
24164;DHT22;12319;49.204;8.116;2023-05-24T01:35:51;13.50;71.60
24164;DHT22;12319;49.204;8.116;2023-05-24T01:38:16;13.50;71.90
24164;DHT22;12319;49.204;8.116;2023-05-24T01:40:42;13.50;71.40
24164;DHT22;12319;49.204;8.116;2023-05-24T01:43:13;13.50;71.60
24164;DHT22;12319;49.204;8.116;2023-05-24T01:46:18;13.50;71.60
24164;DHT22;12319;49.204;8.116;2023-05-24T01:52:00;13.50;71.60
24164;DHT22;12319;49.204;8.116;2023-05-24T01:54:30;13.50;71.60
24164;DHT22;12319;49.204;8.116;2023-05-24T01:56:58;13.50;71.60
24164;DHT22;12319;49.204;8.116;2023-05-24T01:59:25;13.50;71.20
24164;DHT22;12319;49.204;8.116;2023-05-24T02:01:51;13.50;71.50
24164;DHT22;12319;49.204;8.116;2023-05-24T02:04:17;13.50;71.10
24164;DHT22;12319;49.204;8.116;2023-05-24T02:06:42;13.50;71.20
24164;DHT22;12319;49.204;8.116;2023-05-24T02:09:07;13.50;71.10
24164;DHT22;12319;49.204;8.116;2023-05-24T02:11:33;13.50;71.10
24164;DHT22;12319;49.204;8.116;2023-05-24T02:13:59;13.50;71.10
24164;DHT22;12319;49.204;8.116;2023-05-24T02:16:24;13.50;71.40
24164;DHT22;12319;49.204;8.116;2023-05-24T02:18:51;13.50;71.20
24164;DHT22;12319;49.204;8.116;2023-05-24T02:21:17;13.50;71.10
24164;DHT22;12319;49.204;8.116;2023-05-24T02:23:42;13.50;71.20
24164;DHT22;12319;49.204;8.116;2023-05-24T02:26:08;13.50;71.10
24164;DHT22;12319;49.204;8.116;2023-05-24T02:28:36;13.50;71.10
24164;DHT22;12319;49.204;8.116;2023-05-24T02:31:01;13.50;71.10
24164;DHT22;12319;49.204;8.116;2023-05-24T02:33:27;13.50;71.10
24164;DHT22;12319;49.204;8.116;2023-05-24T02:35:54;13.40;71.00
24164;DHT22;12319;49.204;8.116;2023-05-24T02:38:20;13.40;70.90
24164;DHT22;12319;49.204;8.116;2023-05-24T02:40:46;13.40;71.00
24164;DHT22;12319;49.204;8.116;2023-05-24T02:43:11;13.40;71.00
24164;DHT22;12319;49.204;8.116;2023-05-24T02:45:37;13.30;70.90
24164;DHT22;12319;49.204;8.116;2023-05-24T02:48:02;13.30;70.90
24164;DHT22;12319;49.204;8.116;2023-05-24T02:50:28;13.20;70.80
24164;DHT22;12319;49.204;8.116;2023-05-24T02:52:53;13.20;71.00
24164;DHT22;12319;49.204;8.116;2023-05-24T02:55:19;13.20;71.20
24164;DHT22;12319;49.204;8.116;2023-05-24T02:57:44;13.10;71.20
24164;DHT22;12319;49.204;8.116;2023-05-24T03:00:13;13.10;71.30
24164;DHT22;12319;49.204;8.116;2023-05-24T03:02:38;13.10;71.60
24164;DHT22;12319;49.204;8.116;2023-05-24T03:05:05;13.10;71.50
24164;DHT22;12319;49.204;8.116;2023-05-24T03:07:31;13.10;71.70
24164;DHT22;12319;49.204;8.116;2023-05-24T03:09:57;13.10;71.70
24164;DHT22;12319;49.204;8.116;2023-05-24T03:12:22;13.10;71.90
24164;DHT22;12319;49.204;8.116;2023-05-24T03:14:48;13.00;71.60
24164;DHT22;12319;49.204;8.116;2023-05-24T03:17:13;13.00;71.70
24164;DHT22;12319;49.204;8.116;2023-05-24T03:19:39;13.00;71.80
24164;DHT22;12319;49.204;8.116;2023-05-24T03:22:04;13.00;71.70
24164;DHT22;12319;49.204;8.116;2023-05-24T03:24:30;12.90;71.70
24164;DHT22;12319;49.204;8.116;2023-05-24T03:26:57;12.90;71.70
24164;DHT22;12319;49.204;8.116;2023-05-24T03:29:23;12.90;71.70
24164;DHT22;12319;49.204;8.116;2023-05-24T03:31:48;12.90;71.50
24164;DHT22;12319;49.204;8.116;2023-05-24T03:34:14;12.90;71.50
24164;DHT22;12319;49.204;8.116;2023-05-24T03:36:40;12.80;71.60
24164;DHT22;12319;49.204;8.116;2023-05-24T03:39:06;12.80;71.50
24164;DHT22;12319;49.204;8.116;2023-05-24T03:41:32;12.80;71.20
24164;DHT22;12319;49.204;8.116;2023-05-24T03:43:58;12.80;71.30
24164;DHT22;12319;49.204;8.116;2023-05-24T03:46:23;12.70;71.20
24164;DHT22;12319;49.204;8.116;2023-05-24T03:48:49;12.70;71.10
24164;DHT22;12319;49.204;8.116;2023-05-24T03:51:15;12.70;71.00
24164;DHT22;12319;49.204;8.116;2023-05-24T03:53:40;12.70;71.00
24164;DHT22;12319;49.204;8.116;2023-05-24T03:56:06;12.70;71.10
24164;DHT22;12319;49.204;8.116;2023-05-24T03:58:31;12.60;71.10
24164;DHT22;12319;49.204;8.116;2023-05-24T04:00:57;12.60;71.20
24164;DHT22;12319;49.204;8.116;2023-05-24T04:03:23;12.60;71.30
24164;DHT22;12319;49.204;8.116;2023-05-24T04:05:50;12.60;71.40
24164;DHT22;12319;49.204;8.116;2023-05-24T04:08:15;12.60;71.40
24164;DHT22;12319;49.204;8.116;2023-05-24T04:10:41;12.50;71.30
24164;DHT22;12319;49.204;8.116;2023-05-24T04:13:07;12.50;71.40
24164;DHT22;12319;49.204;8.116;2023-05-24T04:15:32;12.50;71.40
24164;DHT22;12319;49.204;8.116;2023-05-24T04:17:58;12.40;71.30
24164;DHT22;12319;49.204;8.116;2023-05-24T04:20:24;12.40;71.40
24164;DHT22;12319;49.204;8.116;2023-05-24T04:22:52;12.40;71.50
24164;DHT22;12319;49.204;8.116;2023-05-24T04:25:19;12.40;71.40
24164;DHT22;12319;49.204;8.116;2023-05-24T04:27:44;12.40;71.60
24164;DHT22;12319;49.204;8.116;2023-05-24T04:30:13;12.40;71.40
24164;DHT22;12319;49.204;8.116;2023-05-24T04:32:40;12.40;71.50
24164;DHT22;12319;49.204;8.116;2023-05-24T04:35:06;12.40;71.50
24164;DHT22;12319;49.204;8.116;2023-05-24T04:37:32;12.40;71.30
24164;DHT22;12319;49.204;8.116;2023-05-24T04:39:58;12.40;71.20
24164;DHT22;12319;49.204;8.116;2023-05-24T04:42:23;12.40;71.30
24164;DHT22;12319;49.204;8.116;2023-05-24T04:44:49;12.40;72.00
24164;DHT22;12319;49.204;8.116;2023-05-24T04:47:14;12.40;71.60
24164;DHT22;12319;49.204;8.116;2023-05-24T04:49:40;12.50;71.70
24164;DHT22;12319;49.204;8.116;2023-05-24T04:52:06;12.50;71.80
24164;DHT22;12319;49.204;8.116;2023-05-24T04:54:32;12.60;71.90
24164;DHT22;12319;49.204;8.116;2023-05-24T04:56:58;12.70;71.80
24164;DHT22;12319;49.204;8.116;2023-05-24T04:59:23;12.80;71.40
24164;DHT22;12319;49.204;8.116;2023-05-24T05:01:49;12.80;70.90
24164;DHT22;12319;49.204;8.116;2023-05-24T05:04:15;13.00;70.80
24164;DHT22;12319;49.204;8.116;2023-05-24T05:06:41;13.00;70.70
24164;DHT22;12319;49.204;8.116;2023-05-24T05:09:09;13.10;70.70
24164;DHT22;12319;49.204;8.116;2023-05-24T05:11:37;13.30;70.40
24164;DHT22;12319;49.204;8.116;2023-05-24T05:17:24;13.60;70.10
24164;DHT22;12319;49.204;8.116;2023-05-24T05:19:50;13.70;70.00
24164;DHT22;12319;49.204;8.116;2023-05-24T05:22:15;13.80;69.40
24164;DHT22;12319;49.204;8.116;2023-05-24T05:24:41;13.90;69.60
24164;DHT22;12319;49.204;8.116;2023-05-24T05:27:06;14.00;69.00
24164;DHT22;12319;49.204;8.116;2023-05-24T05:29:32;14.10;69.20
24164;DHT22;12319;49.204;8.116;2023-05-24T05:31:57;14.20;69.00
24164;DHT22;12319;49.204;8.116;2023-05-24T05:34:23;14.30;68.60
24164;DHT22;12319;49.204;8.116;2023-05-24T05:36:48;14.40;68.20
24164;DHT22;12319;49.204;8.116;2023-05-24T05:39:14;14.50;67.40
24164;DHT22;12319;49.204;8.116;2023-05-24T05:41:40;14.60;67.60
24164;DHT22;12319;49.204;8.116;2023-05-24T05:44:10;14.70;67.40
24164;DHT22;12319;49.204;8.116;2023-05-24T05:46:37;14.80;66.80
24164;DHT22;12319;49.204;8.116;2023-05-24T05:49:03;14.90;66.90
24164;DHT22;12319;49.204;8.116;2023-05-24T05:51:28;15.10;66.40
24164;DHT22;12319;49.204;8.116;2023-05-24T05:53:54;15.20;66.30
24164;DHT22;12319;49.204;8.116;2023-05-24T05:56:20;15.30;66.20
24164;DHT22;12319;49.204;8.116;2023-05-24T05:58:45;15.30;65.80
24164;DHT22;12319;49.204;8.116;2023-05-24T06:01:11;15.60;65.20
24164;DHT22;12319;49.204;8.116;2023-05-24T06:03:36;15.80;65.00
24164;DHT22;12319;49.204;8.116;2023-05-24T06:06:02;15.90;64.70
24164;DHT22;12319;49.204;8.116;2023-05-24T06:08:27;16.60;63.90
24164;DHT22;12319;49.204;8.116;2023-05-24T06:10:55;17.80;63.20
24164;DHT22;12319;49.204;8.116;2023-05-24T06:13:20;19.30;61.30
24164;DHT22;12319;49.204;8.116;2023-05-24T06:15:46;20.40;60.80
24164;DHT22;12319;49.204;8.116;2023-05-24T06:18:11;21.30;59.90
24164;DHT22;12319;49.204;8.116;2023-05-24T06:20:37;22.40;58.00
24164;DHT22;12319;49.204;8.116;2023-05-24T06:23:03;22.70;52.80
24164;DHT22;12319;49.204;8.116;2023-05-24T06:25:29;22.30;52.80
24164;DHT22;12319;49.204;8.116;2023-05-24T06:27:55;21.70;54.20
24164;DHT22;12319;49.204;8.116;2023-05-24T06:30:21;21.30;54.60
24164;DHT22;12319;49.204;8.116;2023-05-24T06:32:46;20.70;54.10
24164;DHT22;12319;49.204;8.116;2023-05-24T06:35:12;20.10;54.00
24164;DHT22;12319;49.204;8.116;2023-05-24T06:37:37;19.70;55.30
24164;DHT22;12319;49.204;8.116;2023-05-24T06:40:05;19.30;55.10
24164;DHT22;12319;49.204;8.116;2023-05-24T06:42:32;19.00;55.50
24164;DHT22;12319;49.204;8.116;2023-05-24T06:44:57;18.70;56.00
24164;DHT22;12319;49.204;8.116;2023-05-24T06:47:23;18.80;57.10
24164;DHT22;12319;49.204;8.116;2023-05-24T06:49:49;19.60;57.90
24164;DHT22;12319;49.204;8.116;2023-05-24T06:52:15;21.50;57.70
24164;DHT22;12319;49.204;8.116;2023-05-24T06:54:40;23.60;54.10
24164;DHT22;12319;49.204;8.116;2023-05-24T06:57:06;24.40;52.70
24164;DHT22;12319;49.204;8.116;2023-05-24T06:59:31;24.30;51.10
24164;DHT22;12319;49.204;8.116;2023-05-24T07:01:57;24.10;51.70
24164;DHT22;12319;49.204;8.116;2023-05-24T07:04:23;24.20;51.60
24164;DHT22;12319;49.204;8.116;2023-05-24T07:06:49;25.30;49.30
24164;DHT22;12319;49.204;8.116;2023-05-24T07:09:16;26.50;49.30
24164;DHT22;12319;49.204;8.116;2023-05-24T07:11:42;28.00;49.80
24164;DHT22;12319;49.204;8.116;2023-05-24T07:14:07;29.30;47.20
24164;DHT22;12319;49.204;8.116;2023-05-24T07:19:55;31.10;41.80
24164;DHT22;12319;49.204;8.116;2023-05-24T07:22:21;30.30;41.30
24164;DHT22;12319;49.204;8.116;2023-05-24T07:24:48;29.30;43.10
24164;DHT22;12319;49.204;8.116;2023-05-24T07:27:14;29.20;45.00
24164;DHT22;12319;49.204;8.116;2023-05-24T07:29:39;29.80;43.90
24164;DHT22;12319;49.204;8.116;2023-05-24T07:32:06;30.80;43.00
24164;DHT22;12319;49.204;8.116;2023-05-24T07:34:31;31.60;42.90
24164;DHT22;12319;49.204;8.116;2023-05-24T07:36:57;32.40;42.70
24164;DHT22;12319;49.204;8.116;2023-05-24T07:39:26;33.10;40.20
24164;DHT22;12319;49.204;8.116;2023-05-24T07:41:54;33.80;41.40
24164;DHT22;12319;49.204;8.116;2023-05-24T07:44:20;34.20;39.40
24164;DHT22;12319;49.204;8.116;2023-05-24T07:46:45;34.50;38.30
24164;DHT22;12319;49.204;8.116;2023-05-24T07:49:11;34.80;37.80
24164;DHT22;12319;49.204;8.116;2023-05-24T07:51:37;35.10;37.20
24164;DHT22;12319;49.204;8.116;2023-05-24T07:54:03;35.20;37.70
24164;DHT22;12319;49.204;8.116;2023-05-24T07:56:29;35.30;36.40
24164;DHT22;12319;49.204;8.116;2023-05-24T07:58:54;35.60;35.00
24164;DHT22;12319;49.204;8.116;2023-05-24T08:01:27;35.80;35.10
24164;DHT22;12319;49.204;8.116;2023-05-24T08:03:53;35.90;35.40
24164;DHT22;12319;49.204;8.116;2023-05-24T08:06:18;35.90;34.10
24164;DHT22;12319;49.204;8.116;2023-05-24T08:08:44;35.90;33.40
24164;DHT22;12319;49.204;8.116;2023-05-24T08:11:10;35.70;32.80
24164;DHT22;12319;49.204;8.116;2023-05-24T08:13:35;35.60;31.70
24164;DHT22;12319;49.204;8.116;2023-05-24T08:16:01;35.50;32.60
24164;DHT22;12319;49.204;8.116;2023-05-24T08:18:26;35.10;32.50
24164;DHT22;12319;49.204;8.116;2023-05-24T08:20:52;34.80;30.80
24164;DHT22;12319;49.204;8.116;2023-05-24T08:23:18;34.50;31.30
24164;DHT22;12319;49.204;8.116;2023-05-24T08:25:43;34.10;31.70
24164;DHT22;12319;49.204;8.116;2023-05-24T08:28:09;34.00;31.50
24164;DHT22;12319;49.204;8.116;2023-05-24T08:30:35;33.70;30.50
24164;DHT22;12319;49.204;8.116;2023-05-24T08:33:01;33.30;30.60
24164;DHT22;12319;49.204;8.116;2023-05-24T08:35:27;32.20;30.00
24164;DHT22;12319;49.204;8.116;2023-05-24T08:37:52;30.40;30.40
24164;DHT22;12319;49.204;8.116;2023-05-24T08:40:18;28.90;32.20
24164;DHT22;12319;49.204;8.116;2023-05-24T08:42:44;27.40;33.40
24164;DHT22;12319;49.204;8.116;2023-05-24T08:45:12;26.20;33.60
24164;DHT22;12319;49.204;8.116;2023-05-24T08:47:38;25.10;34.70
24164;DHT22;12319;49.204;8.116;2023-05-24T08:50:05;24.30;34.40
24164;DHT22;12319;49.204;8.116;2023-05-24T08:52:31;23.60;36.00
24164;DHT22;12319;49.204;8.116;2023-05-24T08:54:58;23.00;36.20
24164;DHT22;12319;49.204;8.116;2023-05-24T08:57:25;22.60;36.70
24164;DHT22;12319;49.204;8.116;2023-05-24T08:59:51;22.30;37.70
24164;DHT22;12319;49.204;8.116;2023-05-24T09:02:20;22.00;38.40
24164;DHT22;12319;49.204;8.116;2023-05-24T09:04:48;21.80;38.40
24164;DHT22;12319;49.204;8.116;2023-05-24T09:07:15;21.70;38.80
24164;DHT22;12319;49.204;8.116;2023-05-24T09:09:42;21.70;38.60
24164;DHT22;12319;49.204;8.116;2023-05-24T09:12:13;21.70;38.30
24164;DHT22;12319;49.204;8.116;2023-05-24T09:14:44;21.60;38.70
24164;DHT22;12319;49.204;8.116;2023-05-24T09:17:11;21.50;38.90
24164;DHT22;12319;49.204;8.116;2023-05-24T09:19:38;21.40;39.50
24164;DHT22;12319;49.204;8.116;2023-05-24T09:22:04;21.20;38.80
24164;DHT22;12319;49.204;8.116;2023-05-24T09:24:30;21.00;38.60
24164;DHT22;12319;49.204;8.116;2023-05-24T09:27:04;20.90;39.10
24164;DHT22;12319;49.204;8.116;2023-05-24T09:29:31;20.80;38.10
24164;DHT22;12319;49.204;8.116;2023-05-24T09:31:59;20.60;38.40
24164;DHT22;12319;49.204;8.116;2023-05-24T09:34:24;20.50;38.70
24164;DHT22;12319;49.204;8.116;2023-05-24T09:36:51;20.40;38.60
24164;DHT22;12319;49.204;8.116;2023-05-24T09:39:18;20.40;39.20
24164;DHT22;12319;49.204;8.116;2023-05-24T09:41:51;20.30;38.80
24164;DHT22;12319;49.204;8.116;2023-05-24T09:44:23;20.30;38.60
24164;DHT22;12319;49.204;8.116;2023-05-24T09:46:49;20.10;38.80
24164;DHT22;12319;49.204;8.116;2023-05-24T09:49:15;20.00;38.50
24164;DHT22;12319;49.204;8.116;2023-05-24T09:51:40;20.00;38.70
24164;DHT22;12319;49.204;8.116;2023-05-24T09:54:07;19.90;38.10
24164;DHT22;12319;49.204;8.116;2023-05-24T09:56:33;19.90;38.50
24164;DHT22;12319;49.204;8.116;2023-05-24T09:59:05;19.80;39.30
24164;DHT22;12319;49.204;8.116;2023-05-24T10:01:32;19.80;39.30
24164;DHT22;12319;49.204;8.116;2023-05-24T10:03:59;19.70;39.10
24164;DHT22;12319;49.204;8.116;2023-05-24T10:06:29;19.70;38.30
24164;DHT22;12319;49.204;8.116;2023-05-24T10:08:58;19.70;39.00
24164;DHT22;12319;49.204;8.116;2023-05-24T10:11:23;19.60;38.80
24164;DHT22;12319;49.204;8.116;2023-05-24T10:13:49;19.60;37.80
24164;DHT22;12319;49.204;8.116;2023-05-24T10:16:15;19.50;38.60
24164;DHT22;12319;49.204;8.116;2023-05-24T10:18:41;19.50;39.10
24164;DHT22;12319;49.204;8.116;2023-05-24T10:21:07;19.50;39.20
24164;DHT22;12319;49.204;8.116;2023-05-24T10:23:36;19.60;39.50
24164;DHT22;12319;49.204;8.116;2023-05-24T10:26:07;19.70;39.50
24164;DHT22;12319;49.204;8.116;2023-05-24T10:28:40;19.80;38.20
24164;DHT22;12319;49.204;8.116;2023-05-24T10:31:16;20.00;39.10
24164;DHT22;12319;49.204;8.116;2023-05-24T10:33:43;20.10;38.30
24164;DHT22;12319;49.204;8.116;2023-05-24T10:36:12;20.30;38.50
24164;DHT22;12319;49.204;8.116;2023-05-24T10:38:38;20.50;38.60
24164;DHT22;12319;49.204;8.116;2023-05-24T10:41:05;20.60;38.80
24164;DHT22;12319;49.204;8.116;2023-05-24T10:43:33;20.80;37.80
24164;DHT22;12319;49.204;8.116;2023-05-24T10:46:01;20.90;39.00
24164;DHT22;12319;49.204;8.116;2023-05-24T10:50:53;21.00;39.30
24164;DHT22;12319;49.204;8.116;2023-05-24T10:53:25;21.00;39.70
24164;DHT22;12319;49.204;8.116;2023-05-24T10:58:26;21.00;39.10
24164;DHT22;12319;49.204;8.116;2023-05-24T11:00:54;20.90;39.00
24164;DHT22;12319;49.204;8.116;2023-05-24T11:03:22;20.80;39.00
24164;DHT22;12319;49.204;8.116;2023-05-24T11:05:53;20.70;39.70
24164;DHT22;12319;49.204;8.116;2023-05-24T11:08:23;20.60;40.50
24164;DHT22;12319;49.204;8.116;2023-05-24T11:11:00;20.50;39.00
24164;DHT22;12319;49.204;8.116;2023-05-24T11:13:26;20.40;38.60
24164;DHT22;12319;49.204;8.116;2023-05-24T11:15:51;20.10;38.30
24164;DHT22;12319;49.204;8.116;2023-05-24T11:18:21;20.00;38.50
24164;DHT22;12319;49.204;8.116;2023-05-24T11:20:47;19.90;39.40
24164;DHT22;12319;49.204;8.116;2023-05-24T11:23:14;19.90;39.80
24164;DHT22;12319;49.204;8.116;2023-05-24T11:25:41;19.80;40.60
24164;DHT22;12319;49.204;8.116;2023-05-24T11:28:08;19.80;41.20
24164;DHT22;12319;49.204;8.116;2023-05-24T11:30:42;19.70;41.20
24164;DHT22;12319;49.204;8.116;2023-05-24T11:33:21;19.70;41.00
24164;DHT22;12319;49.204;8.116;2023-05-24T11:35:52;19.60;40.60
24164;DHT22;12319;49.204;8.116;2023-05-24T11:38:18;19.50;41.30
24164;DHT22;12319;49.204;8.116;2023-05-24T11:40:46;19.50;41.30
24164;DHT22;12319;49.204;8.116;2023-05-24T11:43:19;19.50;41.60
24164;DHT22;12319;49.204;8.116;2023-05-24T11:45:48;19.60;40.10
24164;DHT22;12319;49.204;8.116;2023-05-24T11:48:15;19.70;40.10
24164;DHT22;12319;49.204;8.116;2023-05-24T11:50:43;19.80;39.60
24164;DHT22;12319;49.204;8.116;2023-05-24T11:53:12;19.90;39.60
24164;DHT22;12319;49.204;8.116;2023-05-24T11:55:39;20.00;40.00
24164;DHT22;12319;49.204;8.116;2023-05-24T11:58:28;20.00;40.50
24164;DHT22;12319;49.204;8.116;2023-05-24T12:00:56;20.10;40.60
24164;DHT22;12319;49.204;8.116;2023-05-24T12:03:22;20.10;40.90
24164;DHT22;12319;49.204;8.116;2023-05-24T12:05:48;20.20;41.00
24164;DHT22;12319;49.204;8.116;2023-05-24T12:08:13;20.40;41.30
24164;DHT22;12319;49.204;8.116;2023-05-24T12:10:42;20.60;41.40
24164;DHT22;12319;49.204;8.116;2023-05-24T12:13:21;20.70;41.40
24164;DHT22;12319;49.204;8.116;2023-05-24T12:15:54;20.90;41.60
24164;DHT22;12319;49.204;8.116;2023-05-24T12:18:21;21.20;41.00
24164;DHT22;12319;49.204;8.116;2023-05-24T12:20:50;21.30;41.40
24164;DHT22;12319;49.204;8.116;2023-05-24T12:23:18;21.40;41.60
24164;DHT22;12319;49.204;8.116;2023-05-24T12:25:44;21.60;41.60
24164;DHT22;12319;49.204;8.116;2023-05-24T12:28:09;21.80;40.90
24164;DHT22;12319;49.204;8.116;2023-05-24T12:30:37;22.00;41.40
24164;DHT22;12319;49.204;8.116;2023-05-24T12:33:08;22.10;41.30
24164;DHT22;12319;49.204;8.116;2023-05-24T12:35:34;22.20;41.20
24164;DHT22;12319;49.204;8.116;2023-05-24T12:37:59;22.20;41.20
24164;DHT22;12319;49.204;8.116;2023-05-24T12:40:25;22.30;40.80
24164;DHT22;12319;49.204;8.116;2023-05-24T12:42:54;22.50;40.50
24164;DHT22;12319;49.204;8.116;2023-05-24T12:45:21;22.60;40.60
24164;DHT22;12319;49.204;8.116;2023-05-24T12:47:52;22.70;40.70
24164;DHT22;12319;49.204;8.116;2023-05-24T12:50:19;22.80;40.60
24164;DHT22;12319;49.204;8.116;2023-05-24T12:52:45;23.00;39.30
24164;DHT22;12319;49.204;8.116;2023-05-24T12:55:12;23.00;39.30
24164;DHT22;12319;49.204;8.116;2023-05-24T12:57:38;23.10;39.80
24164;DHT22;12319;49.204;8.116;2023-05-24T13:00:05;23.10;39.70
24164;DHT22;12319;49.204;8.116;2023-05-24T13:02:32;23.30;39.80
24164;DHT22;12319;49.204;8.116;2023-05-24T13:04:57;23.40;39.20
24164;DHT22;12319;49.204;8.116;2023-05-24T13:07:23;23.40;39.10
24164;DHT22;12319;49.204;8.116;2023-05-24T13:09:48;23.40;39.00
24164;DHT22;12319;49.204;8.116;2023-05-24T13:12:14;23.60;39.40
24164;DHT22;12319;49.204;8.116;2023-05-24T13:14:40;23.60;39.60
24164;DHT22;12319;49.204;8.116;2023-05-24T13:17:05;23.80;39.60
24164;DHT22;12319;49.204;8.116;2023-05-24T13:19:32;23.90;39.40
24164;DHT22;12319;49.204;8.116;2023-05-24T13:21:57;24.20;38.50
24164;DHT22;12319;49.204;8.116;2023-05-24T13:28:19;24.20;37.90
24164;DHT22;12319;49.204;8.116;2023-05-24T13:30:46;24.30;37.80
24164;DHT22;12319;49.204;8.116;2023-05-24T13:33:12;24.30;38.50
24164;DHT22;12319;49.204;8.116;2023-05-24T13:36:14;24.30;37.70
24164;DHT22;12319;49.204;8.116;2023-05-24T13:38:41;24.40;38.00
24164;DHT22;12319;49.204;8.116;2023-05-24T13:44:29;24.40;37.80
24164;DHT22;12319;49.204;8.116;2023-05-24T13:46:55;24.50;38.00
24164;DHT22;12319;49.204;8.116;2023-05-24T13:49:30;24.50;38.00
24164;DHT22;12319;49.204;8.116;2023-05-24T13:51:55;24.60;37.20
24164;DHT22;12319;49.204;8.116;2023-05-24T13:54:21;24.50;38.30
24164;DHT22;12319;49.204;8.116;2023-05-24T13:56:47;24.60;38.30
24164;DHT22;12319;49.204;8.116;2023-05-24T13:59:14;24.60;37.30
24164;DHT22;12319;49.204;8.116;2023-05-24T14:01:41;24.50;37.80
24164;DHT22;12319;49.204;8.116;2023-05-24T14:10:57;24.50;37.10
24164;DHT22;12319;49.204;8.116;2023-05-24T14:16:45;24.60;37.20
24164;DHT22;12319;49.204;8.116;2023-05-24T14:19:12;24.60;37.30
24164;DHT22;12319;49.204;8.116;2023-05-24T14:21:37;24.70;37.30
24164;DHT22;12319;49.204;8.116;2023-05-24T14:27:27;24.60;36.50
24164;DHT22;12319;49.204;8.116;2023-05-24T14:29:52;24.60;36.70
24164;DHT22;12319;49.204;8.116;2023-05-24T14:35:40;24.50;36.00
24164;DHT22;12319;49.204;8.116;2023-05-24T14:38:06;24.40;36.60
24164;DHT22;12319;49.204;8.116;2023-05-24T14:40:33;24.30;36.80
24164;DHT22;12319;49.204;8.116;2023-05-24T14:42:59;24.10;37.40
24164;DHT22;12319;49.204;8.116;2023-05-24T14:45:25;24.10;37.00
24164;DHT22;12319;49.204;8.116;2023-05-24T14:54:33;23.70;37.70
24164;DHT22;12319;49.204;8.116;2023-05-24T14:56:59;23.50;38.00
24164;DHT22;12319;49.204;8.116;2023-05-24T14:59:25;23.30;37.50
24164;DHT22;12319;49.204;8.116;2023-05-24T15:01:53;23.00;38.20
24164;DHT22;12319;49.204;8.116;2023-05-24T15:11:03;22.10;37.40
24164;DHT22;12319;49.204;8.116;2023-05-24T15:13:29;21.70;38.00
24164;DHT22;12319;49.204;8.116;2023-05-24T15:15:55;21.40;38.20
24164;DHT22;12319;49.204;8.116;2023-05-24T15:18:23;21.00;38.30
24164;DHT22;12319;49.204;8.116;2023-05-24T15:20:50;20.70;38.90
24164;DHT22;12319;49.204;8.116;2023-05-24T15:23:15;20.60;39.50
24164;DHT22;12319;49.204;8.116;2023-05-24T15:25:41;20.50;39.70
24164;DHT22;12319;49.204;8.116;2023-05-24T15:28:07;20.40;39.70
24164;DHT22;12319;49.204;8.116;2023-05-24T15:30:34;20.30;39.70
24164;DHT22;12319;49.204;8.116;2023-05-24T15:33:00;20.20;39.40
24164;DHT22;12319;49.204;8.116;2023-05-24T15:35:25;20.10;39.40
24164;DHT22;12319;49.204;8.116;2023-05-24T15:41:13;20.00;39.50
24164;DHT22;12319;49.204;8.116;2023-05-24T15:43:39;19.90;39.90
24164;DHT22;12319;49.204;8.116;2023-05-24T15:46:04;19.90;40.00
24164;DHT22;12319;49.204;8.116;2023-05-24T15:48:30;19.80;40.50
24164;DHT22;12319;49.204;8.116;2023-05-24T15:50:55;19.80;41.00
24164;DHT22;12319;49.204;8.116;2023-05-24T15:53:21;19.70;41.20
24164;DHT22;12319;49.204;8.116;2023-05-24T15:55:47;19.60;41.30
24164;DHT22;12319;49.204;8.116;2023-05-24T16:08:13;19.00;43.10
24164;DHT22;12319;49.204;8.116;2023-05-24T16:10:40;18.90;43.00
24164;DHT22;12319;49.204;8.116;2023-05-24T16:13:07;18.90;43.30
24164;DHT22;12319;49.204;8.116;2023-05-24T16:15:32;18.80;43.50
24164;DHT22;12319;49.204;8.116;2023-05-24T16:18:02;18.70;43.60
24164;DHT22;12319;49.204;8.116;2023-05-24T16:20:27;18.70;43.40
24164;DHT22;12319;49.204;8.116;2023-05-24T16:22:53;18.50;43.70
24164;DHT22;12319;49.204;8.116;2023-05-24T16:25:18;18.40;43.60
24164;DHT22;12319;49.204;8.116;2023-05-24T16:27:44;18.30;44.00
24164;DHT22;12319;49.204;8.116;2023-05-24T16:30:10;18.20;44.20
24164;DHT22;12319;49.204;8.116;2023-05-24T16:32:35;18.00;44.10
24164;DHT22;12319;49.204;8.116;2023-05-24T16:35:01;17.90;44.40
24164;DHT22;12319;49.204;8.116;2023-05-24T16:37:26;17.80;44.60
24164;DHT22;12319;49.204;8.116;2023-05-24T16:39:52;17.80;44.60
24164;DHT22;12319;49.204;8.116;2023-05-24T16:42:17;17.70;44.60